sensor_id;sensor_type;location;lat;lon;timestamp;temperature;humidity
32809;DHT22;19159;48.178;16.386;2023-12-14T00:02:04;11.20;99.90
32809;DHT22;19159;48.178;16.386;2023-12-14T00:04:30;11.10;99.90
32809;DHT22;19159;48.178;16.386;2023-12-14T00:06:55;11.10;99.90
32809;DHT22;19159;48.178;16.386;2023-12-14T00:09:21;11.10;99.90
32809;DHT22;19159;48.178;16.386;2023-12-14T00:11:47;11.10;99.90
32809;DHT22;19159;48.178;16.386;2023-12-14T00:14:12;11.10;99.90
32809;DHT22;19159;48.178;16.386;2023-12-14T00:16:38;11.10;99.90
32809;DHT22;19159;48.178;16.386;2023-12-14T00:19:03;11.00;99.90
32809;DHT22;19159;48.178;16.386;2023-12-14T00:21:29;11.00;99.90
32809;DHT22;19159;48.178;16.386;2023-12-14T00:23:55;11.00;99.90
32809;DHT22;19159;48.178;16.386;2023-12-14T00:26:20;11.00;99.90
32809;DHT22;19159;48.178;16.386;2023-12-14T00:28:46;11.10;99.90
32809;DHT22;19159;48.178;16.386;2023-12-14T00:31:12;11.10;99.90
32809;DHT22;19159;48.178;16.386;2023-12-14T00:33:37;11.10;99.90
32809;DHT22;19159;48.178;16.386;2023-12-14T00:36:03;11.10;99.90
32809;DHT22;19159;48.178;16.386;2023-12-14T00:38:29;11.10;99.90
32809;DHT22;19159;48.178;16.386;2023-12-14T00:40:54;11.00;99.90
32809;DHT22;19159;48.178;16.386;2023-12-14T00:43:20;11.00;99.90
32809;DHT22;19159;48.178;16.386;2023-12-14T00:45:46;10.80;99.90
32809;DHT22;19159;48.178;16.386;2023-12-14T00:48:11;10.80;99.90
32809;DHT22;19159;48.178;16.386;2023-12-14T00:50:37;10.80;99.90
32809;DHT22;19159;48.178;16.386;2023-12-14T00:53:03;10.80;99.90
32809;DHT22;19159;48.178;16.386;2023-12-14T00:55:28;10.90;99.90
32809;DHT22;19159;48.178;16.386;2023-12-14T00:57:54;10.90;99.90
32809;DHT22;19159;48.178;16.386;2023-12-14T01:00:20;10.90;99.90
32809;DHT22;19159;48.178;16.386;2023-12-14T01:02:46;10.80;99.90
32809;DHT22;19159;48.178;16.386;2023-12-14T01:05:11;10.70;99.90
32809;DHT22;19159;48.178;16.386;2023-12-14T01:07:37;10.70;99.90
32809;DHT22;19159;48.178;16.386;2023-12-14T01:10:03;10.80;99.90
32809;DHT22;19159;48.178;16.386;2023-12-14T01:12:29;10.80;99.90
32809;DHT22;19159;48.178;16.386;2023-12-14T01:14:55;10.70;99.90
32809;DHT22;19159;48.178;16.386;2023-12-14T01:17:20;10.60;99.90
32809;DHT22;19159;48.178;16.386;2023-12-14T01:19:46;10.70;99.90
32809;DHT22;19159;48.178;16.386;2023-12-14T01:22:11;10.70;99.90
32809;DHT22;19159;48.178;16.386;2023-12-14T01:24:37;10.70;99.90
32809;DHT22;19159;48.178;16.386;2023-12-14T01:27:03;10.60;99.90
32809;DHT22;19159;48.178;16.386;2023-12-14T01:29:28;10.50;99.90
32809;DHT22;19159;48.178;16.386;2023-12-14T01:31:54;10.50;99.90
32809;DHT22;19159;48.178;16.386;2023-12-14T01:34:20;10.60;99.90
32809;DHT22;19159;48.178;16.386;2023-12-14T01:36:45;10.60;99.90
32809;DHT22;19159;48.178;16.386;2023-12-14T01:39:11;10.70;99.90
32809;DHT22;19159;48.178;16.386;2023-12-14T01:41:36;10.70;99.90
32809;DHT22;19159;48.178;16.386;2023-12-14T01:44:02;10.80;99.90
32809;DHT22;19159;48.178;16.386;2023-12-14T01:46:28;10.80;99.90
32809;DHT22;19159;48.178;16.386;2023-12-14T01:48:54;10.90;99.90
32809;DHT22;19159;48.178;16.386;2023-12-14T01:51:19;10.90;99.90
32809;DHT22;19159;48.178;16.386;2023-12-14T01:53:45;10.90;99.90
32809;DHT22;19159;48.178;16.386;2023-12-14T01:56:11;10.90;99.90
32809;DHT22;19159;48.178;16.386;2023-12-14T01:58:36;10.90;99.90
32809;DHT22;19159;48.178;16.386;2023-12-14T02:03:52;10.80;99.90
32809;DHT22;19159;48.178;16.386;2023-12-14T02:06:19;10.80;99.90
32809;DHT22;19159;48.178;16.386;2023-12-14T02:08:45;10.80;99.90
32809;DHT22;19159;48.178;16.386;2023-12-14T02:11:11;10.80;99.90
32809;DHT22;19159;48.178;16.386;2023-12-14T02:13:37;10.80;99.90
32809;DHT22;19159;48.178;16.386;2023-12-14T02:16:03;10.80;99.90
32809;DHT22;19159;48.178;16.386;2023-12-14T02:18:29;10.80;99.90
32809;DHT22;19159;48.178;16.386;2023-12-14T02:20:54;10.80;99.90
32809;DHT22;19159;48.178;16.386;2023-12-14T02:23:20;10.90;99.90
32809;DHT22;19159;48.178;16.386;2023-12-14T02:25:46;10.90;99.90
32809;DHT22;19159;48.178;16.386;2023-12-14T02:28:11;10.90;99.90
32809;DHT22;19159;48.178;16.386;2023-12-14T02:30:37;11.00;99.90
32809;DHT22;19159;48.178;16.386;2023-12-14T02:33:03;11.00;99.90
32809;DHT22;19159;48.178;16.386;2023-12-14T02:35:28;11.10;99.90
32809;DHT22;19159;48.178;16.386;2023-12-14T02:37:54;11.10;99.90
32809;DHT22;19159;48.178;16.386;2023-12-14T02:40:20;11.10;99.90
32809;DHT22;19159;48.178;16.386;2023-12-14T02:42:46;11.10;99.90
32809;DHT22;19159;48.178;16.386;2023-12-14T02:45:12;11.10;99.90
32809;DHT22;19159;48.178;16.386;2023-12-14T02:47:37;11.10;99.90
32809;DHT22;19159;48.178;16.386;2023-12-14T02:50:03;11.20;99.90
32809;DHT22;19159;48.178;16.386;2023-12-14T02:52:29;11.20;99.90
32809;DHT22;19159;48.178;16.386;2023-12-14T02:54:55;11.20;99.90
32809;DHT22;19159;48.178;16.386;2023-12-14T02:57:20;11.20;99.90
32809;DHT22;19159;48.178;16.386;2023-12-14T02:59:46;11.30;99.90
32809;DHT22;19159;48.178;16.386;2023-12-14T03:02:12;11.30;99.90
32809;DHT22;19159;48.178;16.386;2023-12-14T03:04:38;11.40;99.90
32809;DHT22;19159;48.178;16.386;2023-12-14T03:07:07;11.40;99.90
32809;DHT22;19159;48.178;16.386;2023-12-14T03:09:33;11.40;99.90
32809;DHT22;19159;48.178;16.386;2023-12-14T03:12:00;11.50;99.90
32809;DHT22;19159;48.178;16.386;2023-12-14T03:14:26;11.50;99.90
32809;DHT22;19159;48.178;16.386;2023-12-14T03:16:56;11.50;99.90
32809;DHT22;19159;48.178;16.386;2023-12-14T03:19:22;11.50;99.90
32809;DHT22;19159;48.178;16.386;2023-12-14T03:21:47;11.50;99.90
32809;DHT22;19159;48.178;16.386;2023-12-14T03:24:13;11.60;99.90
32809;DHT22;19159;48.178;16.386;2023-12-14T03:26:39;11.70;99.90
32809;DHT22;19159;48.178;16.386;2023-12-14T03:29:05;11.70;99.90
32809;DHT22;19159;48.178;16.386;2023-12-14T03:31:30;11.70;99.90
32809;DHT22;19159;48.178;16.386;2023-12-14T03:33:56;11.80;99.90
32809;DHT22;19159;48.178;16.386;2023-12-14T03:36:21;11.80;99.90
32809;DHT22;19159;48.178;16.386;2023-12-14T03:38:51;11.80;99.90
32809;DHT22;19159;48.178;16.386;2023-12-14T03:41:16;11.90;99.90
32809;DHT22;19159;48.178;16.386;2023-12-14T03:43:42;11.90;99.90
32809;DHT22;19159;48.178;16.386;2023-12-14T03:46:08;11.90;99.90
32809;DHT22;19159;48.178;16.386;2023-12-14T03:48:33;11.90;99.90
32809;DHT22;19159;48.178;16.386;2023-12-14T03:51:03;12.00;99.90
32809;DHT22;19159;48.178;16.386;2023-12-14T03:53:29;12.00;99.90
32809;DHT22;19159;48.178;16.386;2023-12-14T03:55:55;12.00;99.90
32809;DHT22;19159;48.178;16.386;2023-12-14T03:58:20;12.10;99.90
32809;DHT22;19159;48.178;16.386;2023-12-14T04:00:46;12.10;99.90
32809;DHT22;19159;48.178;16.386;2023-12-14T04:03:12;12.10;99.90
32809;DHT22;19159;48.178;16.386;2023-12-14T04:05:37;12.10;99.90
32809;DHT22;19159;48.178;16.386;2023-12-14T04:08:04;12.20;99.90
32809;DHT22;19159;48.178;16.386;2023-12-14T04:10:30;12.20;99.90
32809;DHT22;19159;48.178;16.386;2023-12-14T04:12:56;12.20;99.90
32809;DHT22;19159;48.178;16.386;2023-12-14T04:15:22;12.20;99.90
32809;DHT22;19159;48.178;16.386;2023-12-14T04:17:47;12.20;99.90
32809;DHT22;19159;48.178;16.386;2023-12-14T04:20:14;12.30;99.90
32809;DHT22;19159;48.178;16.386;2023-12-14T04:22:42;12.30;99.90
32809;DHT22;19159;48.178;16.386;2023-12-14T04:25:08;12.30;99.90
32809;DHT22;19159;48.178;16.386;2023-12-14T04:27:33;12.30;99.90
32809;DHT22;19159;48.178;16.386;2023-12-14T04:29:59;12.30;99.90
32809;DHT22;19159;48.178;16.386;2023-12-14T04:32:25;12.30;99.90
32809;DHT22;19159;48.178;16.386;2023-12-14T04:34:51;12.30;99.90
32809;DHT22;19159;48.178;16.386;2023-12-14T04:37:16;12.30;99.90
32809;DHT22;19159;48.178;16.386;2023-12-14T04:39:42;12.30;99.90
32809;DHT22;19159;48.178;16.386;2023-12-14T04:42:08;12.30;99.90
32809;DHT22;19159;48.178;16.386;2023-12-14T04:44:33;12.30;99.90
32809;DHT22;19159;48.178;16.386;2023-12-14T04:46:59;12.30;99.90
32809;DHT22;19159;48.178;16.386;2023-12-14T04:49:24;12.30;99.90
32809;DHT22;19159;48.178;16.386;2023-12-14T04:51:50;12.30;99.90
32809;DHT22;19159;48.178;16.386;2023-12-14T04:54:17;12.10;99.90
32809;DHT22;19159;48.178;16.386;2023-12-14T04:56:46;12.10;99.90
32809;DHT22;19159;48.178;16.386;2023-12-14T04:59:11;12.10;99.90
32809;DHT22;19159;48.178;16.386;2023-12-14T05:01:37;12.10;99.90
32809;DHT22;19159;48.178;16.386;2023-12-14T05:04:03;12.10;99.90
32809;DHT22;19159;48.178;16.386;2023-12-14T05:06:29;12.00;99.90
32809;DHT22;19159;48.178;16.386;2023-12-14T05:08:55;12.00;99.90
32809;DHT22;19159;48.178;16.386;2023-12-14T05:11:21;12.00;99.90
32809;DHT22;19159;48.178;16.386;2023-12-14T05:13:46;12.00;99.90
32809;DHT22;19159;48.178;16.386;2023-12-14T05:16:15;12.00;99.90
32809;DHT22;19159;48.178;16.386;2023-12-14T05:18:41;12.00;99.90
32809;DHT22;19159;48.178;16.386;2023-12-14T05:21:07;12.00;99.90
32809;DHT22;19159;48.178;16.386;2023-12-14T05:23:32;11.90;99.90
32809;DHT22;19159;48.178;16.386;2023-12-14T05:25:58;11.90;99.90
32809;DHT22;19159;48.178;16.386;2023-12-14T05:28:24;11.90;99.90
32809;DHT22;19159;48.178;16.386;2023-12-14T05:30:50;11.80;99.90
32809;DHT22;19159;48.178;16.386;2023-12-14T05:33:15;11.80;99.90
32809;DHT22;19159;48.178;16.386;2023-12-14T05:35:41;11.80;99.90
32809;DHT22;19159;48.178;16.386;2023-12-14T05:38:07;11.80;99.90
32809;DHT22;19159;48.178;16.386;2023-12-14T05:40:32;11.70;99.90
32809;DHT22;19159;48.178;16.386;2023-12-14T05:42:58;11.60;99.90
32809;DHT22;19159;48.178;16.386;2023-12-14T05:45:24;11.70;99.90
32809;DHT22;19159;48.178;16.386;2023-12-14T05:47:49;11.50;99.90
32809;DHT22;19159;48.178;16.386;2023-12-14T05:50:16;11.50;99.90
32809;DHT22;19159;48.178;16.386;2023-12-14T05:52:42;11.50;99.90
32809;DHT22;19159;48.178;16.386;2023-12-14T05:55:08;11.50;99.90
32809;DHT22;19159;48.178;16.386;2023-12-14T05:57:37;11.50;99.90
32809;DHT22;19159;48.178;16.386;2023-12-14T06:00:06;11.40;99.90
32809;DHT22;19159;48.178;16.386;2023-12-14T06:02:33;11.40;99.90
32809;DHT22;19159;48.178;16.386;2023-12-14T06:04:58;11.30;99.90
32809;DHT22;19159;48.178;16.386;2023-12-14T06:07:25;11.30;99.90
32809;DHT22;19159;48.178;16.386;2023-12-14T06:09:50;11.20;99.90
32809;DHT22;19159;48.178;16.386;2023-12-14T06:12:16;11.30;99.90
32809;DHT22;19159;48.178;16.386;2023-12-14T06:14:41;11.30;99.90
32809;DHT22;19159;48.178;16.386;2023-12-14T06:17:07;11.20;99.90
32809;DHT22;19159;48.178;16.386;2023-12-14T06:19:33;11.20;99.90
32809;DHT22;19159;48.178;16.386;2023-12-14T06:21:58;11.10;99.90
32809;DHT22;19159;48.178;16.386;2023-12-14T06:24:24;11.20;99.90
32809;DHT22;19159;48.178;16.386;2023-12-14T06:26:50;11.10;99.90
32809;DHT22;19159;48.178;16.386;2023-12-14T06:29:15;11.20;99.90
32809;DHT22;19159;48.178;16.386;2023-12-14T06:31:41;11.10;99.90
32809;DHT22;19159;48.178;16.386;2023-12-14T06:34:07;11.10;99.90
32809;DHT22;19159;48.178;16.386;2023-12-14T06:36:33;11.10;99.90
32809;DHT22;19159;48.178;16.386;2023-12-14T06:39:00;11.10;99.90
32809;DHT22;19159;48.178;16.386;2023-12-14T06:41:27;11.10;99.90
32809;DHT22;19159;48.178;16.386;2023-12-14T06:43:53;11.10;99.90
32809;DHT22;19159;48.178;16.386;2023-12-14T06:46:19;11.10;99.90
32809;DHT22;19159;48.178;16.386;2023-12-14T06:48:45;11.10;99.90
32809;DHT22;19159;48.178;16.386;2023-12-14T06:51:11;11.10;99.90
32809;DHT22;19159;48.178;16.386;2023-12-14T06:53:39;11.10;99.90
32809;DHT22;19159;48.178;16.386;2023-12-14T06:56:06;11.20;99.90
32809;DHT22;19159;48.178;16.386;2023-12-14T06:58:35;11.20;99.90
32809;DHT22;19159;48.178;16.386;2023-12-14T07:01:00;11.20;99.90
32809;DHT22;19159;48.178;16.386;2023-12-14T07:03:26;11.20;99.90
32809;DHT22;19159;48.178;16.386;2023-12-14T07:05:52;11.20;99.90
32809;DHT22;19159;48.178;16.386;2023-12-14T07:08:17;11.20;99.90
32809;DHT22;19159;48.178;16.386;2023-12-14T07:10:43;11.30;99.90
32809;DHT22;19159;48.178;16.386;2023-12-14T07:13:09;11.30;99.90
32809;DHT22;19159;48.178;16.386;2023-12-14T07:15:34;11.20;99.90
32809;DHT22;19159;48.178;16.386;2023-12-14T07:18:00;11.20;99.90
32809;DHT22;19159;48.178;16.386;2023-12-14T07:20:25;11.30;99.90
32809;DHT22;19159;48.178;16.386;2023-12-14T07:22:51;11.30;99.90
32809;DHT22;19159;48.178;16.386;2023-12-14T07:25:17;11.30;99.90
32809;DHT22;19159;48.178;16.386;2023-12-14T07:27:42;11.40;99.90
32809;DHT22;19159;48.178;16.386;2023-12-14T07:30:09;11.40;99.90
32809;DHT22;19159;48.178;16.386;2023-12-14T07:32:35;11.40;99.90
32809;DHT22;19159;48.178;16.386;2023-12-14T07:35:01;11.50;99.90
32809;DHT22;19159;48.178;16.386;2023-12-14T07:37:26;11.40;99.90
32809;DHT22;19159;48.178;16.386;2023-12-14T07:39:52;11.40;99.90
32809;DHT22;19159;48.178;16.386;2023-12-14T07:42:18;11.50;99.90
32809;DHT22;19159;48.178;16.386;2023-12-14T07:44:46;11.50;99.90
32809;DHT22;19159;48.178;16.386;2023-12-14T07:47:12;11.50;99.90
32809;DHT22;19159;48.178;16.386;2023-12-14T07:49:38;11.40;99.90
32809;DHT22;19159;48.178;16.386;2023-12-14T07:52:03;11.40;99.90
32809;DHT22;19159;48.178;16.386;2023-12-14T07:54:29;11.50;99.90
32809;DHT22;19159;48.178;16.386;2023-12-14T07:56:55;11.50;99.90
32809;DHT22;19159;48.178;16.386;2023-12-14T07:59:20;11.30;99.90
32809;DHT22;19159;48.178;16.386;2023-12-14T08:01:46;11.30;99.90
32809;DHT22;19159;48.178;16.386;2023-12-14T08:04:12;11.30;99.90
32809;DHT22;19159;48.178;16.386;2023-12-14T08:06:38;11.30;99.90
32809;DHT22;19159;48.178;16.386;2023-12-14T08:09:06;11.30;99.90
32809;DHT22;19159;48.178;16.386;2023-12-14T08:11:33;11.30;99.90
32809;DHT22;19159;48.178;16.386;2023-12-14T08:13:59;11.30;99.90
32809;DHT22;19159;48.178;16.386;2023-12-14T08:16:24;11.20;99.90
32809;DHT22;19159;48.178;16.386;2023-12-14T08:18:50;11.20;99.90
32809;DHT22;19159;48.178;16.386;2023-12-14T08:21:17;11.20;99.90
32809;DHT22;19159;48.178;16.386;2023-12-14T08:23:43;11.10;99.90
32809;DHT22;19159;48.178;16.386;2023-12-14T08:26:09;11.10;99.90
32809;DHT22;19159;48.178;16.386;2023-12-14T08:28:41;11.00;99.90
32809;DHT22;19159;48.178;16.386;2023-12-14T08:31:08;11.00;99.90
32809;DHT22;19159;48.178;16.386;2023-12-14T08:33:35;11.00;99.90
32809;DHT22;19159;48.178;16.386;2023-12-14T08:36:01;11.00;99.90
32809;DHT22;19159;48.178;16.386;2023-12-14T08:38:26;11.10;99.90
32809;DHT22;19159;48.178;16.386;2023-12-14T08:40:52;11.20;99.90
32809;DHT22;19159;48.178;16.386;2023-12-14T08:43:18;11.20;99.90
32809;DHT22;19159;48.178;16.386;2023-12-14T08:45:43;11.10;99.90
32809;DHT22;19159;48.178;16.386;2023-12-14T08:48:09;11.10;99.90
32809;DHT22;19159;48.178;16.386;2023-12-14T08:50:34;11.20;99.90
32809;DHT22;19159;48.178;16.386;2023-12-14T08:53:00;11.20;99.90
32809;DHT22;19159;48.178;16.386;2023-12-14T08:55:26;11.20;99.90
32809;DHT22;19159;48.178;16.386;2023-12-14T08:57:52;11.20;99.90
32809;DHT22;19159;48.178;16.386;2023-12-14T09:00:18;11.30;99.90
32809;DHT22;19159;48.178;16.386;2023-12-14T09:02:45;11.30;99.90
32809;DHT22;19159;48.178;16.386;2023-12-14T09:05:14;11.40;99.90
32809;DHT22;19159;48.178;16.386;2023-12-14T09:07:41;11.50;99.90
32809;DHT22;19159;48.178;16.386;2023-12-14T09:10:07;11.60;99.90
32809;DHT22;19159;48.178;16.386;2023-12-14T09:12:33;11.60;99.90
32809;DHT22;19159;48.178;16.386;2023-12-14T09:15:00;11.70;99.90
32809;DHT22;19159;48.178;16.386;2023-12-14T09:17:26;11.80;99.90
32809;DHT22;19159;48.178;16.386;2023-12-14T09:19:57;11.90;99.90
32809;DHT22;19159;48.178;16.386;2023-12-14T09:22:23;12.00;99.90
32809;DHT22;19159;48.178;16.386;2023-12-14T09:24:48;12.10;99.90
32809;DHT22;19159;48.178;16.386;2023-12-14T09:27:14;12.10;99.90
32809;DHT22;19159;48.178;16.386;2023-12-14T09:29:40;12.20;99.90
32809;DHT22;19159;48.178;16.386;2023-12-14T09:32:07;12.30;99.90
32809;DHT22;19159;48.178;16.386;2023-12-14T09:34:34;12.40;99.90
32809;DHT22;19159;48.178;16.386;2023-12-14T09:36:59;12.40;99.90
32809;DHT22;19159;48.178;16.386;2023-12-14T09:39:25;12.40;99.90
32809;DHT22;19159;48.178;16.386;2023-12-14T09:41:51;12.30;99.90
32809;DHT22;19159;48.178;16.386;2023-12-14T09:44:17;12.10;99.90
32809;DHT22;19159;48.178;16.386;2023-12-14T09:46:43;12.20;99.90
32809;DHT22;19159;48.178;16.386;2023-12-14T09:49:15;12.30;99.90
32809;DHT22;19159;48.178;16.386;2023-12-14T09:51:41;12.30;99.90
32809;DHT22;19159;48.178;16.386;2023-12-14T09:54:07;12.40;99.90
32809;DHT22;19159;48.178;16.386;2023-12-14T09:56:32;12.40;99.90
32809;DHT22;19159;48.178;16.386;2023-12-14T09:58:58;12.70;99.90
32809;DHT22;19159;48.178;16.386;2023-12-14T10:01:27;12.80;99.90
32809;DHT22;19159;48.178;16.386;2023-12-14T10:04:14;13.10;99.90
32809;DHT22;19159;48.178;16.386;2023-12-14T10:06:41;13.40;99.90
32809;DHT22;19159;48.178;16.386;2023-12-14T10:09:08;13.60;99.90
32809;DHT22;19159;48.178;16.386;2023-12-14T10:11:44;13.70;99.90
32809;DHT22;19159;48.178;16.386;2023-12-14T10:14:21;13.80;99.90
32809;DHT22;19159;48.178;16.386;2023-12-14T10:16:48;14.00;99.50
32809;DHT22;19159;48.178;16.386;2023-12-14T10:19:15;14.40;99.60
32809;DHT22;19159;48.178;16.386;2023-12-14T10:21:42;15.30;99.10
32809;DHT22;19159;48.178;16.386;2023-12-14T10:24:07;15.90;98.00
32809;DHT22;19159;48.178;16.386;2023-12-14T10:26:33;16.50;97.50
32809;DHT22;19159;48.178;16.386;2023-12-14T10:28:59;17.80;97.40
32809;DHT22;19159;48.178;16.386;2023-12-14T10:31:25;19.50;93.20
32809;DHT22;19159;48.178;16.386;2023-12-14T10:33:51;21.10;92.20
32809;DHT22;19159;48.178;16.386;2023-12-14T10:36:22;22.10;86.60
32809;DHT22;19159;48.178;16.386;2023-12-14T10:38:53;22.70;83.80
32809;DHT22;19159;48.178;16.386;2023-12-14T10:41:20;22.60;81.30
32809;DHT22;19159;48.178;16.386;2023-12-14T10:43:48;21.50;82.00
32809;DHT22;19159;48.178;16.386;2023-12-14T10:46:16;20.60;83.20
32809;DHT22;19159;48.178;16.386;2023-12-14T10:48:44;20.30;84.60
32809;DHT22;19159;48.178;16.386;2023-12-14T10:51:14;21.00;86.00
32809;DHT22;19159;48.178;16.386;2023-12-14T10:53:41;23.60;83.00
32809;DHT22;19159;48.178;16.386;2023-12-14T10:56:12;23.40;76.50
32809;DHT22;19159;48.178;16.386;2023-12-14T10:58:55;21.90;76.10
32809;DHT22;19159;48.178;16.386;2023-12-14T11:01:23;20.50;78.70
32809;DHT22;19159;48.178;16.386;2023-12-14T11:03:53;19.20;80.40
32809;DHT22;19159;48.178;16.386;2023-12-14T11:06:21;18.20;82.60
32809;DHT22;19159;48.178;16.386;2023-12-14T11:08:47;17.60;85.10
32809;DHT22;19159;48.178;16.386;2023-12-14T11:11:15;17.00;86.60
32809;DHT22;19159;48.178;16.386;2023-12-14T11:13:52;16.40;88.30
32809;DHT22;19159;48.178;16.386;2023-12-14T11:16:26;16.10;89.60
32809;DHT22;19159;48.178;16.386;2023-12-14T11:24:21;15.40;91.40
32809;DHT22;19159;48.178;16.386;2023-12-14T11:26:49;15.60;91.90
32809;DHT22;19159;48.178;16.386;2023-12-14T11:29:16;16.00;91.90
32809;DHT22;19159;48.178;16.386;2023-12-14T11:31:42;16.10;91.70
32809;DHT22;19159;48.178;16.386;2023-12-14T11:34:08;15.70;91.30
32809;DHT22;19159;48.178;16.386;2023-12-14T11:36:34;15.40;91.80
32809;DHT22;19159;48.178;16.386;2023-12-14T11:38:59;14.90;92.60
32809;DHT22;19159;48.178;16.386;2023-12-14T11:41:25;14.70;92.80
32809;DHT22;19159;48.178;16.386;2023-12-14T11:43:51;14.40;93.30
32809;DHT22;19159;48.178;16.386;2023-12-14T11:46:17;14.00;93.90
32809;DHT22;19159;48.178;16.386;2023-12-14T11:48:46;13.70;94.60
32809;DHT22;19159;48.178;16.386;2023-12-14T11:51:15;13.60;95.10
32809;DHT22;19159;48.178;16.386;2023-12-14T11:53:46;13.80;95.30
32809;DHT22;19159;48.178;16.386;2023-12-14T11:56:14;13.80;95.30
32809;DHT22;19159;48.178;16.386;2023-12-14T11:58:43;13.90;95.30
32809;DHT22;19159;48.178;16.386;2023-12-14T12:01:18;13.90;95.10
32809;DHT22;19159;48.178;16.386;2023-12-14T12:03:45;13.80;95.30
32809;DHT22;19159;48.178;16.386;2023-12-14T12:06:24;14.10;96.40
32809;DHT22;19159;48.178;16.386;2023-12-14T12:08:50;15.60;95.30
32809;DHT22;19159;48.178;16.386;2023-12-14T12:11:21;16.00;93.70
32809;DHT22;19159;48.178;16.386;2023-12-14T12:13:55;16.00;93.40
32809;DHT22;19159;48.178;16.386;2023-12-14T12:16:21;18.00;93.30
32809;DHT22;19159;48.178;16.386;2023-12-14T12:18:47;20.20;90.00
32809;DHT22;19159;48.178;16.386;2023-12-14T12:21:13;21.90;84.40
32809;DHT22;19159;48.178;16.386;2023-12-14T12:23:39;22.80;80.20
32809;DHT22;19159;48.178;16.386;2023-12-14T12:26:05;23.30;78.80
32809;DHT22;19159;48.178;16.386;2023-12-14T12:28:31;24.10;76.50
32809;DHT22;19159;48.178;16.386;2023-12-14T12:30:57;24.30;73.40
32809;DHT22;19159;48.178;16.386;2023-12-14T12:33:25;24.40;72.30
32809;DHT22;19159;48.178;16.386;2023-12-14T12:35:51;24.40;71.80
32809;DHT22;19159;48.178;16.386;2023-12-14T12:38:17;23.70;72.00
32809;DHT22;19159;48.178;16.386;2023-12-14T12:40:44;22.20;72.50
32809;DHT22;19159;48.178;16.386;2023-12-14T12:43:10;20.60;75.10
32809;DHT22;19159;48.178;16.386;2023-12-14T12:45:37;19.50;78.10
32809;DHT22;19159;48.178;16.386;2023-12-14T12:48:03;18.60;80.50
32809;DHT22;19159;48.178;16.386;2023-12-14T12:50:31;17.70;82.60
32809;DHT22;19159;48.178;16.386;2023-12-14T12:52:57;17.10;84.90
32809;DHT22;19159;48.178;16.386;2023-12-14T12:55:22;16.50;87.00
32809;DHT22;19159;48.178;16.386;2023-12-14T12:57:48;16.10;88.90
32809;DHT22;19159;48.178;16.386;2023-12-14T13:00:15;15.70;90.00
32809;DHT22;19159;48.178;16.386;2023-12-14T13:02:42;15.40;90.70
32809;DHT22;19159;48.178;16.386;2023-12-14T13:05:08;15.10;91.10
32809;DHT22;19159;48.178;16.386;2023-12-14T13:07:35;14.60;91.80
32809;DHT22;19159;48.178;16.386;2023-12-14T13:10:04;14.30;92.70
32809;DHT22;19159;48.178;16.386;2023-12-14T13:12:31;14.10;93.00
32809;DHT22;19159;48.178;16.386;2023-12-14T13:14:57;14.00;93.20
32809;DHT22;19159;48.178;16.386;2023-12-14T13:17:22;13.90;93.70
32809;DHT22;19159;48.178;16.386;2023-12-14T13:19:49;13.60;94.10
32809;DHT22;19159;48.178;16.386;2023-12-14T13:22:16;13.60;94.20
32809;DHT22;19159;48.178;16.386;2023-12-14T13:24:42;13.50;94.60
32809;DHT22;19159;48.178;16.386;2023-12-14T13:27:07;13.30;95.00
32809;DHT22;19159;48.178;16.386;2023-12-14T13:29:33;13.10;95.20
32809;DHT22;19159;48.178;16.386;2023-12-14T13:32:00;13.10;95.50
32809;DHT22;19159;48.178;16.386;2023-12-14T13:34:27;13.10;95.50
32809;DHT22;19159;48.178;16.386;2023-12-14T13:36:56;13.20;95.60
32809;DHT22;19159;48.178;16.386;2023-12-14T13:39:22;13.20;95.70
32809;DHT22;19159;48.178;16.386;2023-12-14T13:41:48;13.30;95.60
32809;DHT22;19159;48.178;16.386;2023-12-14T13:44:14;13.40;95.50
32809;DHT22;19159;48.178;16.386;2023-12-14T13:46:39;13.30;95.50
32809;DHT22;19159;48.178;16.386;2023-12-14T13:49:05;13.10;95.70
32809;DHT22;19159;48.178;16.386;2023-12-14T13:51:30;12.90;95.90
32809;DHT22;19159;48.178;16.386;2023-12-14T13:53:56;12.80;96.20
32809;DHT22;19159;48.178;16.386;2023-12-14T13:56:22;12.70;96.50
32809;DHT22;19159;48.178;16.386;2023-12-14T13:58:47;12.70;96.50
32809;DHT22;19159;48.178;16.386;2023-12-14T14:01:13;12.70;96.70
32809;DHT22;19159;48.178;16.386;2023-12-14T14:03:41;12.60;96.80
32809;DHT22;19159;48.178;16.386;2023-12-14T14:06:07;12.50;97.00
32809;DHT22;19159;48.178;16.386;2023-12-14T14:08:33;12.50;97.10
32809;DHT22;19159;48.178;16.386;2023-12-14T14:11:00;12.40;97.20
32809;DHT22;19159;48.178;16.386;2023-12-14T14:13:26;12.30;97.30
32809;DHT22;19159;48.178;16.386;2023-12-14T14:15:52;12.30;97.50
32809;DHT22;19159;48.178;16.386;2023-12-14T14:18:18;12.10;97.60
32809;DHT22;19159;48.178;16.386;2023-12-14T14:20:45;12.10;97.90
32809;DHT22;19159;48.178;16.386;2023-12-14T14:23:10;12.00;98.00
32809;DHT22;19159;48.178;16.386;2023-12-14T14:25:40;11.90;98.20
32809;DHT22;19159;48.178;16.386;2023-12-14T14:28:06;11.90;98.30
32809;DHT22;19159;48.178;16.386;2023-12-14T14:30:32;11.90;98.30
32809;DHT22;19159;48.178;16.386;2023-12-14T14:32:57;12.00;98.40
32809;DHT22;19159;48.178;16.386;2023-12-14T14:35:23;11.90;98.40
32809;DHT22;19159;48.178;16.386;2023-12-14T14:37:49;12.00;98.40
32809;DHT22;19159;48.178;16.386;2023-12-14T14:40:16;11.90;98.50
32809;DHT22;19159;48.178;16.386;2023-12-14T14:42:42;11.90;98.60
32809;DHT22;19159;48.178;16.386;2023-12-14T14:45:08;11.90;98.70
32809;DHT22;19159;48.178;16.386;2023-12-14T14:47:35;11.90;98.70
32809;DHT22;19159;48.178;16.386;2023-12-14T14:50:01;11.80;98.80
32809;DHT22;19159;48.178;16.386;2023-12-14T14:52:32;11.70;99.10
32809;DHT22;19159;48.178;16.386;2023-12-14T14:54:57;11.60;99.30
32809;DHT22;19159;48.178;16.386;2023-12-14T14:57:23;11.70;99.40
32809;DHT22;19159;48.178;16.386;2023-12-14T14:59:49;11.70;99.60
32809;DHT22;19159;48.178;16.386;2023-12-14T15:02:15;11.80;99.90
32809;DHT22;19159;48.178;16.386;2023-12-14T15:04:41;11.80;99.80
32809;DHT22;19159;48.178;16.386;2023-12-14T15:07:06;11.70;99.90
32809;DHT22;19159;48.178;16.386;2023-12-14T15:09:32;11.80;99.90
32809;DHT22;19159;48.178;16.386;2023-12-14T15:11:58;11.80;99.90
32809;DHT22;19159;48.178;16.386;2023-12-14T15:14:23;11.90;99.90
32809;DHT22;19159;48.178;16.386;2023-12-14T15:16:49;11.80;99.90
32809;DHT22;19159;48.178;16.386;2023-12-14T15:19:15;11.80;99.90